sensor_id;sensor_type;location;lat;lon;timestamp;P1;durP1;ratioP1;P2;durP2;ratioP2
80567;SDS011;69922;45.656;25.586;2024-01-06T00:01:04;24.20;;;11.90;;
80567;SDS011;69922;45.656;25.586;2024-01-06T00:02:19;18.70;;;11.80;;
80567;SDS011;69922;45.656;25.586;2024-01-06T00:03:25;24.60;;;12.80;;
80567;SDS011;69922;45.656;25.586;2024-01-06T00:04:32;24.40;;;12.00;;
80567;SDS011;69922;45.656;25.586;2024-01-06T00:05:38;19.10;;;12.00;;
80567;SDS011;69922;45.656;25.586;2024-01-06T00:06:45;26.00;;;12.60;;
80567;SDS011;69922;45.656;25.586;2024-01-06T00:07:51;21.00;;;11.80;;
80567;SDS011;69922;45.656;25.586;2024-01-06T00:08:57;22.20;;;11.00;;
80567;SDS011;69922;45.656;25.586;2024-01-06T00:10:05;20.40;;;11.10;;
80567;SDS011;69922;45.656;25.586;2024-01-06T00:11:13;23.10;;;11.00;;
80567;SDS011;69922;45.656;25.586;2024-01-06T00:12:19;17.80;;;10.00;;
80567;SDS011;69922;45.656;25.586;2024-01-06T00:13:25;18.00;;;9.90;;
80567;SDS011;69922;45.656;25.586;2024-01-06T00:14:32;19.90;;;10.20;;
80567;SDS011;69922;45.656;25.586;2024-01-06T00:15:38;17.40;;;10.20;;
80567;SDS011;69922;45.656;25.586;2024-01-06T00:16:45;19.10;;;11.10;;
80567;SDS011;69922;45.656;25.586;2024-01-06T00:17:51;17.20;;;9.90;;
80567;SDS011;69922;45.656;25.586;2024-01-06T00:18:58;22.30;;;10.50;;
80567;SDS011;69922;45.656;25.586;2024-01-06T00:20:06;21.40;;;9.70;;
80567;SDS011;69922;45.656;25.586;2024-01-06T00:21:14;18.30;;;9.80;;
80567;SDS011;69922;45.656;25.586;2024-01-06T00:22:20;17.10;;;10.10;;
80567;SDS011;69922;45.656;25.586;2024-01-06T00:23:27;22.80;;;11.00;;
80567;SDS011;69922;45.656;25.586;2024-01-06T00:24:33;18.50;;;10.50;;
80567;SDS011;69922;45.656;25.586;2024-01-06T00:25:40;16.90;;;10.20;;
80567;SDS011;69922;45.656;25.586;2024-01-06T00:26:46;17.40;;;10.10;;
80567;SDS011;69922;45.656;25.586;2024-01-06T00:27:53;19.20;;;9.90;;
80567;SDS011;69922;45.656;25.586;2024-01-06T00:29:00;19.20;;;10.30;;
80567;SDS011;69922;45.656;25.586;2024-01-06T00:30:07;17.20;;;10.10;;
80567;SDS011;69922;45.656;25.586;2024-01-06T00:31:15;18.80;;;9.70;;
80567;SDS011;69922;45.656;25.586;2024-01-06T00:32:21;17.30;;;10.00;;
80567;SDS011;69922;45.656;25.586;2024-01-06T00:33:28;17.30;;;8.60;;
80567;SDS011;69922;45.656;25.586;2024-01-06T00:34:34;17.30;;;9.40;;
80567;SDS011;69922;45.656;25.586;2024-01-06T00:35:41;16.20;;;8.80;;
80567;SDS011;69922;45.656;25.586;2024-01-06T00:36:47;16.40;;;9.60;;
80567;SDS011;69922;45.656;25.586;2024-01-06T00:37:54;19.80;;;8.50;;
80567;SDS011;69922;45.656;25.586;2024-01-06T00:39:00;16.70;;;8.60;;
80567;SDS011;69922;45.656;25.586;2024-01-06T00:40:09;16.30;;;8.50;;
80567;SDS011;69922;45.656;25.586;2024-01-06T00:41:16;17.20;;;8.20;;
80567;SDS011;69922;45.656;25.586;2024-01-06T00:42:23;16.80;;;8.80;;
80567;SDS011;69922;45.656;25.586;2024-01-06T00:43:29;15.80;;;8.40;;
80567;SDS011;69922;45.656;25.586;2024-01-06T00:44:36;20.20;;;9.60;;
80567;SDS011;69922;45.656;25.586;2024-01-06T00:45:42;19.00;;;8.40;;
80567;SDS011;69922;45.656;25.586;2024-01-06T00:46:49;15.80;;;9.10;;
80567;SDS011;69922;45.656;25.586;2024-01-06T00:47:55;17.30;;;8.10;;
80567;SDS011;69922;45.656;25.586;2024-01-06T00:49:01;14.30;;;7.50;;
80567;SDS011;69922;45.656;25.586;2024-01-06T00:50:09;14.30;;;8.30;;
80567;SDS011;69922;45.656;25.586;2024-01-06T00:51:16;14.20;;;8.20;;
80567;SDS011;69922;45.656;25.586;2024-01-06T00:52:22;13.00;;;7.50;;
80567;SDS011;69922;45.656;25.586;2024-01-06T00:53:29;17.60;;;8.10;;
80567;SDS011;69922;45.656;25.586;2024-01-06T00:54:35;16.00;;;9.70;;
80567;SDS011;69922;45.656;25.586;2024-01-06T00:55:42;15.10;;;8.30;;
80567;SDS011;69922;45.656;25.586;2024-01-06T00:56:48;17.10;;;8.20;;
80567;SDS011;69922;45.656;25.586;2024-01-06T00:57:54;13.90;;;7.20;;
80567;SDS011;69922;45.656;25.586;2024-01-06T00:59:01;15.70;;;7.40;;
80567;SDS011;69922;45.656;25.586;2024-01-06T01:00:07;15.40;;;7.80;;
80567;SDS011;69922;45.656;25.586;2024-01-06T01:01:15;16.40;;;7.80;;
80567;SDS011;69922;45.656;25.586;2024-01-06T01:02:21;14.70;;;7.80;;
80567;SDS011;69922;45.656;25.586;2024-01-06T01:03:28;14.00;;;7.40;;
80567;SDS011;69922;45.656;25.586;2024-01-06T01:04:35;14.00;;;7.00;;
80567;SDS011;69922;45.656;25.586;2024-01-06T01:05:41;13.70;;;7.50;;
80567;SDS011;69922;45.656;25.586;2024-01-06T01:06:48;16.10;;;9.00;;
80567;SDS011;69922;45.656;25.586;2024-01-06T01:07:54;16.30;;;9.10;;
80567;SDS011;69922;45.656;25.586;2024-01-06T01:09:01;16.20;;;7.80;;
80567;SDS011;69922;45.656;25.586;2024-01-06T01:10:09;18.50;;;8.60;;
80567;SDS011;69922;45.656;25.586;2024-01-06T01:11:15;15.80;;;8.60;;
80567;SDS011;69922;45.656;25.586;2024-01-06T01:12:21;13.90;;;7.90;;
80567;SDS011;69922;45.656;25.586;2024-01-06T01:13:28;16.40;;;7.60;;
80567;SDS011;69922;45.656;25.586;2024-01-06T01:14:34;14.70;;;8.30;;
80567;SDS011;69922;45.656;25.586;2024-01-06T01:15:41;14.30;;;8.20;;
80567;SDS011;69922;45.656;25.586;2024-01-06T01:16:47;13.90;;;8.40;;
80567;SDS011;69922;45.656;25.586;2024-01-06T01:17:53;14.10;;;8.20;;
80567;SDS011;69922;45.656;25.586;2024-01-06T01:19:00;15.80;;;8.40;;
80567;SDS011;69922;45.656;25.586;2024-01-06T01:20:08;15.20;;;8.40;;
80567;SDS011;69922;45.656;25.586;2024-01-06T01:21:15;15.70;;;7.30;;
80567;SDS011;69922;45.656;25.586;2024-01-06T01:22:21;13.80;;;7.00;;
80567;SDS011;69922;45.656;25.586;2024-01-06T01:23:28;13.70;;;7.00;;
80567;SDS011;69922;45.656;25.586;2024-01-06T01:24:34;13.40;;;7.20;;
80567;SDS011;69922;45.656;25.586;2024-01-06T01:25:41;13.90;;;7.10;;
80567;SDS011;69922;45.656;25.586;2024-01-06T01:26:47;10.40;;;6.70;;
80567;SDS011;69922;45.656;25.586;2024-01-06T01:27:53;14.20;;;6.80;;
80567;SDS011;69922;45.656;25.586;2024-01-06T01:29:00;14.40;;;7.10;;
80567;SDS011;69922;45.656;25.586;2024-01-06T01:30:07;13.90;;;6.80;;
80567;SDS011;69922;45.656;25.586;2024-01-06T01:31:15;11.40;;;6.80;;
80567;SDS011;69922;45.656;25.586;2024-01-06T01:32:21;13.10;;;6.80;;
80567;SDS011;69922;45.656;25.586;2024-01-06T01:33:28;13.30;;;7.60;;
80567;SDS011;69922;45.656;25.586;2024-01-06T01:34:35;14.10;;;7.00;;
80567;SDS011;69922;45.656;25.586;2024-01-06T01:35:41;11.00;;;6.90;;
80567;SDS011;69922;45.656;25.586;2024-01-06T01:36:48;11.30;;;6.50;;
80567;SDS011;69922;45.656;25.586;2024-01-06T01:37:54;12.90;;;6.60;;
80567;SDS011;69922;45.656;25.586;2024-01-06T01:39:01;12.30;;;7.00;;
80567;SDS011;69922;45.656;25.586;2024-01-06T01:40:08;13.30;;;6.90;;
80567;SDS011;69922;45.656;25.586;2024-01-06T01:41:15;10.00;;;5.90;;
80567;SDS011;69922;45.656;25.586;2024-01-06T01:42:22;10.80;;;6.10;;
80567;SDS011;69922;45.656;25.586;2024-01-06T01:43:28;10.60;;;6.30;;
80567;SDS011;69922;45.656;25.586;2024-01-06T01:44:35;13.20;;;6.80;;
80567;SDS011;69922;45.656;25.586;2024-01-06T01:45:42;11.00;;;5.90;;
80567;SDS011;69922;45.656;25.586;2024-01-06T01:46:49;11.30;;;5.80;;
80567;SDS011;69922;45.656;25.586;2024-01-06T01:47:56;12.10;;;6.10;;
80567;SDS011;69922;45.656;25.586;2024-01-06T01:49:02;12.10;;;6.50;;
80567;SDS011;69922;45.656;25.586;2024-01-06T01:50:09;10.80;;;5.60;;
80567;SDS011;69922;45.656;25.586;2024-01-06T01:51:16;11.10;;;5.80;;
80567;SDS011;69922;45.656;25.586;2024-01-06T01:52:24;10.90;;;6.40;;
80567;SDS011;69922;45.656;25.586;2024-01-06T01:53:31;9.20;;;5.90;;
80567;SDS011;69922;45.656;25.586;2024-01-06T01:54:37;10.80;;;5.60;;
80567;SDS011;69922;45.656;25.586;2024-01-06T01:55:44;11.30;;;5.90;;
80567;SDS011;69922;45.656;25.586;2024-01-06T01:56:52;12.00;;;6.20;;
80567;SDS011;69922;45.656;25.586;2024-01-06T01:57:59;10.30;;;5.80;;
80567;SDS011;69922;45.656;25.586;2024-01-06T01:59:09;11.70;;;6.70;;
80567;SDS011;69922;45.656;25.586;2024-01-06T02:00:17;12.70;;;5.70;;
80567;SDS011;69922;45.656;25.586;2024-01-06T02:01:24;10.60;;;6.10;;
80567;SDS011;69922;45.656;25.586;2024-01-06T02:02:31;11.50;;;5.80;;
80567;SDS011;69922;45.656;25.586;2024-01-06T02:03:37;12.10;;;6.00;;
80567;SDS011;69922;45.656;25.586;2024-01-06T02:04:50;10.30;;;5.30;;
80567;SDS011;69922;45.656;25.586;2024-01-06T02:05:56;10.40;;;5.90;;
80567;SDS011;69922;45.656;25.586;2024-01-06T02:07:02;10.20;;;5.70;;
80567;SDS011;69922;45.656;25.586;2024-01-06T02:08:09;11.90;;;6.00;;
80567;SDS011;69922;45.656;25.586;2024-01-06T02:09:16;11.20;;;6.20;;
80567;SDS011;69922;45.656;25.586;2024-01-06T02:10:22;9.70;;;5.70;;
80567;SDS011;69922;45.656;25.586;2024-01-06T02:11:29;10.40;;;6.00;;
80567;SDS011;69922;45.656;25.586;2024-01-06T02:12:35;9.20;;;5.40;;
80567;SDS011;69922;45.656;25.586;2024-01-06T02:13:42;11.60;;;6.40;;
80567;SDS011;69922;45.656;25.586;2024-01-06T02:14:48;11.70;;;5.80;;
80567;SDS011;69922;45.656;25.586;2024-01-06T02:15:54;12.30;;;6.50;;
80567;SDS011;69922;45.656;25.586;2024-01-06T02:17:01;10.70;;;5.60;;
80567;SDS011;69922;45.656;25.586;2024-01-06T02:18:08;11.30;;;6.60;;
80567;SDS011;69922;45.656;25.586;2024-01-06T02:19:14;11.70;;;6.50;;
80567;SDS011;69922;45.656;25.586;2024-01-06T02:20:23;11.90;;;6.60;;
80567;SDS011;69922;45.656;25.586;2024-01-06T02:21:32;11.00;;;5.80;;
80567;SDS011;69922;45.656;25.586;2024-01-06T02:22:45;9.40;;;5.90;;
80567;SDS011;69922;45.656;25.586;2024-01-06T02:23:52;11.20;;;5.80;;
80567;SDS011;69922;45.656;25.586;2024-01-06T02:24:59;12.20;;;6.20;;
80567;SDS011;69922;45.656;25.586;2024-01-06T02:26:05;13.60;;;6.60;;
80567;SDS011;69922;45.656;25.586;2024-01-06T02:27:12;10.50;;;6.40;;
80567;SDS011;69922;45.656;25.586;2024-01-06T02:28:18;12.40;;;7.00;;
80567;SDS011;69922;45.656;25.586;2024-01-06T02:29:24;10.30;;;6.20;;
80567;SDS011;69922;45.656;25.586;2024-01-06T02:30:31;12.10;;;6.00;;
80567;SDS011;69922;45.656;25.586;2024-01-06T02:31:37;12.00;;;6.50;;
80567;SDS011;69922;45.656;25.586;2024-01-06T02:32:44;11.10;;;6.80;;
80567;SDS011;69922;45.656;25.586;2024-01-06T02:33:51;12.30;;;7.00;;
80567;SDS011;69922;45.656;25.586;2024-01-06T02:34:57;12.80;;;6.90;;
80567;SDS011;69922;45.656;25.586;2024-01-06T02:36:04;15.90;;;7.40;;
80567;SDS011;69922;45.656;25.586;2024-01-06T02:37:11;13.10;;;7.20;;
80567;SDS011;69922;45.656;25.586;2024-01-06T02:38:18;13.40;;;7.40;;
80567;SDS011;69922;45.656;25.586;2024-01-06T02:39:24;15.00;;;7.60;;
80567;SDS011;69922;45.656;25.586;2024-01-06T02:40:31;11.70;;;7.40;;
80567;SDS011;69922;45.656;25.586;2024-01-06T02:41:37;14.20;;;8.40;;
80567;SDS011;69922;45.656;25.586;2024-01-06T02:42:44;13.20;;;7.60;;
80567;SDS011;69922;45.656;25.586;2024-01-06T02:43:51;13.00;;;7.90;;
80567;SDS011;69922;45.656;25.586;2024-01-06T02:45:00;13.60;;;7.60;;
80567;SDS011;69922;45.656;25.586;2024-01-06T02:46:08;13.50;;;7.50;;
80567;SDS011;69922;45.656;25.586;2024-01-06T02:47:14;15.20;;;8.00;;
80567;SDS011;69922;45.656;25.586;2024-01-06T02:48:21;12.40;;;7.50;;
80567;SDS011;69922;45.656;25.586;2024-01-06T02:49:27;12.80;;;7.10;;
80567;SDS011;69922;45.656;25.586;2024-01-06T02:50:34;12.40;;;7.60;;
80567;SDS011;69922;45.656;25.586;2024-01-06T02:51:41;12.20;;;7.80;;
80567;SDS011;69922;45.656;25.586;2024-01-06T02:52:48;13.50;;;7.50;;
80567;SDS011;69922;45.656;25.586;2024-01-06T02:53:54;13.30;;;7.60;;
80567;SDS011;69922;45.656;25.586;2024-01-06T02:55:01;11.20;;;7.10;;
80567;SDS011;69922;45.656;25.586;2024-01-06T02:56:10;12.10;;;6.60;;
80567;SDS011;69922;45.656;25.586;2024-01-06T02:57:17;13.30;;;7.40;;
80567;SDS011;69922;45.656;25.586;2024-01-06T02:58:24;11.50;;;6.90;;
80567;SDS011;69922;45.656;25.586;2024-01-06T02:59:30;12.10;;;7.40;;
80567;SDS011;69922;45.656;25.586;2024-01-06T03:00:38;14.00;;;6.90;;
80567;SDS011;69922;45.656;25.586;2024-01-06T03:01:45;11.90;;;7.00;;
80567;SDS011;69922;45.656;25.586;2024-01-06T03:02:52;12.00;;;7.20;;
80567;SDS011;69922;45.656;25.586;2024-01-06T03:03:59;12.50;;;7.10;;
80567;SDS011;69922;45.656;25.586;2024-01-06T03:05:06;14.30;;;8.30;;
80567;SDS011;69922;45.656;25.586;2024-01-06T03:06:13;15.40;;;7.70;;
80567;SDS011;69922;45.656;25.586;2024-01-06T03:07:19;12.60;;;7.20;;
80567;SDS011;69922;45.656;25.586;2024-01-06T03:08:26;15.50;;;7.50;;
80567;SDS011;69922;45.656;25.586;2024-01-06T03:09:32;14.30;;;7.30;;
80567;SDS011;69922;45.656;25.586;2024-01-06T03:10:39;11.70;;;6.90;;
80567;SDS011;69922;45.656;25.586;2024-01-06T03:11:45;12.40;;;7.70;;
80567;SDS011;69922;45.656;25.586;2024-01-06T03:12:52;11.60;;;7.10;;
80567;SDS011;69922;45.656;25.586;2024-01-06T03:13:59;11.60;;;6.90;;
80567;SDS011;69922;45.656;25.586;2024-01-06T03:15:07;11.40;;;6.50;;
80567;SDS011;69922;45.656;25.586;2024-01-06T03:16:16;13.60;;;6.70;;
80567;SDS011;69922;45.656;25.586;2024-01-06T03:17:22;10.80;;;6.60;;
80567;SDS011;69922;45.656;25.586;2024-01-06T03:18:29;11.10;;;7.00;;
80567;SDS011;69922;45.656;25.586;2024-01-06T03:19:36;12.50;;;6.80;;
80567;SDS011;69922;45.656;25.586;2024-01-06T03:20:43;13.00;;;6.80;;
80567;SDS011;69922;45.656;25.586;2024-01-06T03:21:49;12.10;;;6.60;;
80567;SDS011;69922;45.656;25.586;2024-01-06T03:22:56;13.60;;;7.30;;
80567;SDS011;69922;45.656;25.586;2024-01-06T03:24:03;12.10;;;7.20;;
80567;SDS011;69922;45.656;25.586;2024-01-06T03:25:11;11.90;;;6.90;;
80567;SDS011;69922;45.656;25.586;2024-01-06T03:26:18;14.70;;;7.10;;
80567;SDS011;69922;45.656;25.586;2024-01-06T03:27:24;11.70;;;7.00;;
80567;SDS011;69922;45.656;25.586;2024-01-06T03:28:31;12.50;;;6.60;;
80567;SDS011;69922;45.656;25.586;2024-01-06T03:29:37;11.20;;;6.30;;
80567;SDS011;69922;45.656;25.586;2024-01-06T03:30:44;11.90;;;7.40;;
80567;SDS011;69922;45.656;25.586;2024-01-06T03:31:50;12.50;;;7.40;;
80567;SDS011;69922;45.656;25.586;2024-01-06T03:32:57;10.60;;;6.30;;
80567;SDS011;69922;45.656;25.586;2024-01-06T03:34:05;12.20;;;6.60;;
80567;SDS011;69922;45.656;25.586;2024-01-06T03:35:13;11.70;;;6.80;;
80567;SDS011;69922;45.656;25.586;2024-01-06T03:36:19;13.60;;;7.30;;
80567;SDS011;69922;45.656;25.586;2024-01-06T03:37:26;9.80;;;5.70;;
80567;SDS011;69922;45.656;25.586;2024-01-06T03:38:33;11.60;;;6.50;;
80567;SDS011;69922;45.656;25.586;2024-01-06T03:39:39;11.60;;;6.50;;
80567;SDS011;69922;45.656;25.586;2024-01-06T03:40:46;11.10;;;6.60;;
80567;SDS011;69922;45.656;25.586;2024-01-06T03:41:53;12.50;;;6.40;;
80567;SDS011;69922;45.656;25.586;2024-01-06T03:42:59;11.50;;;6.00;;
80567;SDS011;69922;45.656;25.586;2024-01-06T03:44:05;11.70;;;5.80;;
80567;SDS011;69922;45.656;25.586;2024-01-06T03:45:12;11.80;;;6.10;;
80567;SDS011;69922;45.656;25.586;2024-01-06T03:46:19;10.70;;;6.20;;
80567;SDS011;69922;45.656;25.586;2024-01-06T03:47:26;11.30;;;6.40;;
80567;SDS011;69922;45.656;25.586;2024-01-06T03:48:32;13.00;;;6.00;;
80567;SDS011;69922;45.656;25.586;2024-01-06T03:49:39;11.60;;;5.90;;
80567;SDS011;69922;45.656;25.586;2024-01-06T03:50:46;13.40;;;6.40;;
80567;SDS011;69922;45.656;25.586;2024-01-06T03:51:53;10.70;;;5.70;;
80567;SDS011;69922;45.656;25.586;2024-01-06T03:52:59;10.60;;;5.60;;
80567;SDS011;69922;45.656;25.586;2024-01-06T03:54:06;9.90;;;5.20;;
80567;SDS011;69922;45.656;25.586;2024-01-06T03:55:13;10.40;;;5.90;;
80567;SDS011;69922;45.656;25.586;2024-01-06T03:56:20;10.20;;;5.80;;
80567;SDS011;69922;45.656;25.586;2024-01-06T03:57:27;10.90;;;6.10;;
80567;SDS011;69922;45.656;25.586;2024-01-06T03:58:33;9.80;;;5.80;;
80567;SDS011;69922;45.656;25.586;2024-01-06T03:59:40;10.90;;;5.80;;
80567;SDS011;69922;45.656;25.586;2024-01-06T04:00:47;10.10;;;5.90;;
80567;SDS011;69922;45.656;25.586;2024-01-06T04:01:53;10.50;;;5.90;;
80567;SDS011;69922;45.656;25.586;2024-01-06T04:03:00;10.20;;;5.40;;
80567;SDS011;69922;45.656;25.586;2024-01-06T04:04:06;10.70;;;5.70;;
80567;SDS011;69922;45.656;25.586;2024-01-06T04:05:14;12.10;;;5.90;;
80567;SDS011;69922;45.656;25.586;2024-01-06T04:06:20;10.00;;;5.70;;
80567;SDS011;69922;45.656;25.586;2024-01-06T04:07:27;11.20;;;5.50;;
80567;SDS011;69922;45.656;25.586;2024-01-06T04:08:33;8.50;;;4.70;;
80567;SDS011;69922;45.656;25.586;2024-01-06T04:09:42;10.20;;;5.80;;
80567;SDS011;69922;45.656;25.586;2024-01-06T04:10:49;9.60;;;5.70;;
80567;SDS011;69922;45.656;25.586;2024-01-06T04:11:55;10.90;;;5.40;;
80567;SDS011;69922;45.656;25.586;2024-01-06T04:13:02;10.20;;;6.10;;
80567;SDS011;69922;45.656;25.586;2024-01-06T04:14:08;12.50;;;5.50;;
80567;SDS011;69922;45.656;25.586;2024-01-06T04:15:15;9.60;;;6.00;;
80567;SDS011;69922;45.656;25.586;2024-01-06T04:16:22;9.40;;;5.80;;
80567;SDS011;69922;45.656;25.586;2024-01-06T04:17:29;8.80;;;5.30;;
80567;SDS011;69922;45.656;25.586;2024-01-06T04:18:36;11.00;;;6.30;;
80567;SDS011;69922;45.656;25.586;2024-01-06T04:19:42;8.50;;;5.10;;
80567;SDS011;69922;45.656;25.586;2024-01-06T04:20:49;10.00;;;5.00;;
80567;SDS011;69922;45.656;25.586;2024-01-06T04:21:55;8.20;;;5.70;;
80567;SDS011;69922;45.656;25.586;2024-01-06T04:23:03;9.60;;;5.50;;
80567;SDS011;69922;45.656;25.586;2024-01-06T04:24:10;10.90;;;6.30;;
80567;SDS011;69922;45.656;25.586;2024-01-06T04:25:16;11.20;;;5.90;;
80567;SDS011;69922;45.656;25.586;2024-01-06T04:26:23;12.80;;;6.00;;
80567;SDS011;69922;45.656;25.586;2024-01-06T04:27:29;11.80;;;6.00;;
80567;SDS011;69922;45.656;25.586;2024-01-06T04:28:38;9.20;;;5.40;;
80567;SDS011;69922;45.656;25.586;2024-01-06T04:29:45;9.70;;;5.50;;
80567;SDS011;69922;45.656;25.586;2024-01-06T04:30:51;8.90;;;5.00;;
80567;SDS011;69922;45.656;25.586;2024-01-06T04:31:58;8.90;;;5.70;;
80567;SDS011;69922;45.656;25.586;2024-01-06T04:33:05;8.30;;;4.50;;
80567;SDS011;69922;45.656;25.586;2024-01-06T04:34:12;10.60;;;6.30;;
80567;SDS011;69922;45.656;25.586;2024-01-06T04:35:19;8.90;;;4.90;;
80567;SDS011;69922;45.656;25.586;2024-01-06T04:36:27;8.90;;;4.60;;
80567;SDS011;69922;45.656;25.586;2024-01-06T04:37:34;10.20;;;5.60;;
80567;SDS011;69922;45.656;25.586;2024-01-06T04:38:40;9.70;;;4.90;;
80567;SDS011;69922;45.656;25.586;2024-01-06T04:39:47;9.10;;;5.50;;
80567;SDS011;69922;45.656;25.586;2024-01-06T04:40:53;7.90;;;4.60;;
80567;SDS011;69922;45.656;25.586;2024-01-06T04:42:00;9.90;;;4.60;;
80567;SDS011;69922;45.656;25.586;2024-01-06T04:43:06;9.40;;;4.70;;
80567;SDS011;69922;45.656;25.586;2024-01-06T04:44:13;9.80;;;5.20;;
80567;SDS011;69922;45.656;25.586;2024-01-06T04:45:19;7.80;;;4.50;;
80567;SDS011;69922;45.656;25.586;2024-01-06T04:46:28;10.00;;;5.50;;
80567;SDS011;69922;45.656;25.586;2024-01-06T04:47:35;8.10;;;4.50;;
80567;SDS011;69922;45.656;25.586;2024-01-06T04:48:41;8.30;;;4.70;;
80567;SDS011;69922;45.656;25.586;2024-01-06T04:49:48;8.90;;;4.80;;
80567;SDS011;69922;45.656;25.586;2024-01-06T04:50:55;9.20;;;4.70;;
80567;SDS011;69922;45.656;25.586;2024-01-06T04:52:01;9.00;;;4.90;;
80567;SDS011;69922;45.656;25.586;2024-01-06T04:53:08;8.60;;;4.40;;
80567;SDS011;69922;45.656;25.586;2024-01-06T04:54:14;6.70;;;4.60;;
80567;SDS011;69922;45.656;25.586;2024-01-06T04:55:21;7.00;;;4.60;;
80567;SDS011;69922;45.656;25.586;2024-01-06T04:56:28;8.40;;;4.40;;
80567;SDS011;69922;45.656;25.586;2024-01-06T04:57:39;9.70;;;4.30;;
80567;SDS011;69922;45.656;25.586;2024-01-06T04:58:46;7.60;;;4.00;;
80567;SDS011;69922;45.656;25.586;2024-01-06T04:59:52;9.20;;;5.10;;
80567;SDS011;69922;45.656;25.586;2024-01-06T05:00:59;7.60;;;4.30;;
80567;SDS011;69922;45.656;25.586;2024-01-06T05:02:06;7.80;;;4.10;;
80567;SDS011;69922;45.656;25.586;2024-01-06T05:03:14;9.50;;;4.60;;
80567;SDS011;69922;45.656;25.586;2024-01-06T05:04:21;8.90;;;4.80;;
80567;SDS011;69922;45.656;25.586;2024-01-06T05:05:27;9.00;;;5.50;;
80567;SDS011;69922;45.656;25.586;2024-01-06T05:06:34;8.00;;;4.50;;
80567;SDS011;69922;45.656;25.586;2024-01-06T05:07:40;7.10;;;4.60;;
80567;SDS011;69922;45.656;25.586;2024-01-06T05:08:47;9.00;;;5.10;;
80567;SDS011;69922;45.656;25.586;2024-01-06T05:09:54;8.50;;;4.80;;
80567;SDS011;69922;45.656;25.586;2024-01-06T05:11:00;6.90;;;4.10;;
80567;SDS011;69922;45.656;25.586;2024-01-06T05:12:07;8.80;;;4.20;;
80567;SDS011;69922;45.656;25.586;2024-01-06T05:13:14;7.40;;;4.00;;
80567;SDS011;69922;45.656;25.586;2024-01-06T05:14:22;6.70;;;3.60;;
80567;SDS011;69922;45.656;25.586;2024-01-06T05:15:29;7.90;;;4.00;;
80567;SDS011;69922;45.656;25.586;2024-01-06T05:16:35;6.60;;;3.70;;
80567;SDS011;69922;45.656;25.586;2024-01-06T05:17:42;9.50;;;4.50;;
80567;SDS011;69922;45.656;25.586;2024-01-06T05:18:48;8.10;;;4.40;;
80567;SDS011;69922;45.656;25.586;2024-01-06T05:19:55;6.00;;;3.40;;
80567;SDS011;69922;45.656;25.586;2024-01-06T05:21:02;6.20;;;3.30;;
80567;SDS011;69922;45.656;25.586;2024-01-06T05:22:10;9.30;;;3.80;;
80567;SDS011;69922;45.656;25.586;2024-01-06T05:23:16;6.40;;;3.50;;
80567;SDS011;69922;45.656;25.586;2024-01-06T05:24:23;11.30;;;4.00;;
80567;SDS011;69922;45.656;25.586;2024-01-06T05:25:29;8.00;;;3.80;;
80567;SDS011;69922;45.656;25.586;2024-01-06T05:26:35;8.20;;;4.10;;
80567;SDS011;69922;45.656;25.586;2024-01-06T05:27:42;7.00;;;3.40;;
80567;SDS011;69922;45.656;25.586;2024-01-06T05:28:49;6.70;;;3.50;;
80567;SDS011;69922;45.656;25.586;2024-01-06T05:29:56;7.00;;;3.80;;
80567;SDS011;69922;45.656;25.586;2024-01-06T05:31:03;4.60;;;3.20;;
80567;SDS011;69922;45.656;25.586;2024-01-06T05:32:09;6.60;;;3.70;;
80567;SDS011;69922;45.656;25.586;2024-01-06T05:33:16;6.90;;;3.90;;
80567;SDS011;69922;45.656;25.586;2024-01-06T05:34:22;5.20;;;3.80;;
80567;SDS011;69922;45.656;25.586;2024-01-06T05:35:29;5.50;;;4.00;;
80567;SDS011;69922;45.656;25.586;2024-01-06T05:36:35;8.20;;;4.00;;
80567;SDS011;69922;45.656;25.586;2024-01-06T05:37:42;5.90;;;3.90;;
80567;SDS011;69922;45.656;25.586;2024-01-06T05:38:48;6.60;;;3.80;;
80567;SDS011;69922;45.656;25.586;2024-01-06T05:39:57;6.40;;;4.40;;
80567;SDS011;69922;45.656;25.586;2024-01-06T05:42:10;7.40;;;3.60;;
80567;SDS011;69922;45.656;25.586;2024-01-06T05:43:17;8.00;;;3.90;;
80567;SDS011;69922;45.656;25.586;2024-01-06T05:44:24;6.80;;;3.40;;
80567;SDS011;69922;45.656;25.586;2024-01-06T05:45:31;7.90;;;4.70;;
80567;SDS011;69922;45.656;25.586;2024-01-06T05:46:37;9.50;;;4.20;;
80567;SDS011;69922;45.656;25.586;2024-01-06T05:47:44;7.90;;;4.10;;
80567;SDS011;69922;45.656;25.586;2024-01-06T05:48:50;11.20;;;4.10;;
80567;SDS011;69922;45.656;25.586;2024-01-06T05:49:57;7.00;;;4.50;;
80567;SDS011;69922;45.656;25.586;2024-01-06T05:51:05;12.50;;;6.10;;
80567;SDS011;69922;45.656;25.586;2024-01-06T05:52:11;13.60;;;6.50;;
80567;SDS011;69922;45.656;25.586;2024-01-06T05:53:17;9.50;;;5.40;;
80567;SDS011;69922;45.656;25.586;2024-01-06T05:54:24;10.80;;;6.00;;
80567;SDS011;69922;45.656;25.586;2024-01-06T05:55:30;10.00;;;5.30;;
80567;SDS011;69922;45.656;25.586;2024-01-06T05:56:36;12.20;;;5.60;;
80567;SDS011;69922;45.656;25.586;2024-01-06T05:57:43;9.40;;;5.10;;
80567;SDS011;69922;45.656;25.586;2024-01-06T05:58:49;9.70;;;5.50;;
80567;SDS011;69922;45.656;25.586;2024-01-06T05:59:57;10.00;;;5.00;;
80567;SDS011;69922;45.656;25.586;2024-01-06T06:01:03;10.80;;;5.40;;
80567;SDS011;69922;45.656;25.586;2024-01-06T06:02:11;9.60;;;5.10;;
80567;SDS011;69922;45.656;25.586;2024-01-06T06:03:18;10.10;;;4.90;;
80567;SDS011;69922;45.656;25.586;2024-01-06T06:04:25;10.10;;;5.20;;
80567;SDS011;69922;45.656;25.586;2024-01-06T06:05:32;10.10;;;5.10;;
80567;SDS011;69922;45.656;25.586;2024-01-06T06:06:38;11.00;;;5.70;;
80567;SDS011;69922;45.656;25.586;2024-01-06T06:07:45;10.40;;;5.20;;
80567;SDS011;69922;45.656;25.586;2024-01-06T06:08:51;9.10;;;5.50;;
80567;SDS011;69922;45.656;25.586;2024-01-06T06:09:58;10.30;;;5.60;;
80567;SDS011;69922;45.656;25.586;2024-01-06T06:11:08;12.60;;;6.00;;
80567;SDS011;69922;45.656;25.586;2024-01-06T06:12:17;15.00;;;6.30;;
80567;SDS011;69922;45.656;25.586;2024-01-06T06:13:24;12.70;;;6.90;;
80567;SDS011;69922;45.656;25.586;2024-01-06T06:14:30;12.30;;;7.00;;
80567;SDS011;69922;45.656;25.586;2024-01-06T06:15:36;13.60;;;6.00;;
80567;SDS011;69922;45.656;25.586;2024-01-06T06:16:44;14.80;;;6.00;;
80567;SDS011;69922;45.656;25.586;2024-01-06T06:17:52;10.80;;;6.60;;
80567;SDS011;69922;45.656;25.586;2024-01-06T06:18:58;10.60;;;5.90;;
80567;SDS011;69922;45.656;25.586;2024-01-06T06:20:06;12.10;;;5.40;;
80567;SDS011;69922;45.656;25.586;2024-01-06T06:21:13;9.00;;;5.50;;
80567;SDS011;69922;45.656;25.586;2024-01-06T06:22:20;9.10;;;6.20;;
80567;SDS011;69922;45.656;25.586;2024-01-06T06:23:26;11.30;;;5.80;;
80567;SDS011;69922;45.656;25.586;2024-01-06T06:24:33;9.70;;;5.70;;
80567;SDS011;69922;45.656;25.586;2024-01-06T06:25:39;13.30;;;7.00;;
80567;SDS011;69922;45.656;25.586;2024-01-06T06:26:46;11.00;;;6.10;;
80567;SDS011;69922;45.656;25.586;2024-01-06T06:27:52;9.40;;;6.20;;
80567;SDS011;69922;45.656;25.586;2024-01-06T06:28:59;10.70;;;6.60;;
80567;SDS011;69922;45.656;25.586;2024-01-06T06:30:06;12.20;;;6.00;;
80567;SDS011;69922;45.656;25.586;2024-01-06T06:31:14;11.90;;;5.10;;
80567;SDS011;69922;45.656;25.586;2024-01-06T06:32:21;36.90;;;16.60;;
80567;SDS011;69922;45.656;25.586;2024-01-06T06:33:29;25.90;;;11.90;;